createdAt,value
2022-09-28T00:02:10.620Z,9.32
2022-09-28T00:04:37.113Z,12.45
2022-09-28T00:07:03.568Z,9.95
2022-09-28T00:09:29.963Z,11.80
2022-09-28T00:11:57.451Z,16.25
2022-09-28T00:14:24.465Z,10.32
2022-09-28T00:16:51.028Z,12.55
2022-09-28T00:19:18.054Z,10.00
2022-09-28T00:21:44.613Z,11.88
2022-09-28T00:24:12.584Z,11.27
2022-09-28T00:26:43.110Z,10.70
2022-09-28T00:29:17.431Z,12.07
2022-09-28T00:31:44.094Z,12.48
2022-09-28T00:34:10.847Z,13.05
2022-09-28T00:36:37.435Z,12.65
2022-09-28T00:39:05.338Z,10.88
2022-09-28T00:41:31.938Z,12.55
2022-09-28T00:44:17.243Z,11.85
2022-09-28T00:46:44.649Z,11.73
2022-09-28T00:49:15.506Z,11.13
2022-09-28T00:51:43.965Z,12.65
2022-09-28T00:54:10.996Z,10.68
2022-09-28T00:56:38.834Z,11.88
2022-09-28T00:59:05.237Z,13.77
2022-09-28T01:01:31.648Z,12.80
2022-09-28T01:03:58.961Z,11.68
2022-09-28T01:06:28.196Z,12.27
2022-09-28T01:08:58.240Z,14.60
2022-09-28T01:11:25.530Z,14.15
2022-09-28T01:13:54.384Z,10.45
2022-09-28T01:16:39.328Z,12.48
2022-09-28T01:19:31.534Z,14.43
2022-09-28T01:22:17.610Z,14.55
2022-09-28T01:24:43.937Z,13.88
2022-09-28T01:27:13.348Z,16.90
2022-09-28T01:29:45.886Z,17.52
2022-09-28T01:34:47.019Z,14.30
2022-09-28T01:37:14.897Z,15.90
2022-09-28T01:39:42.609Z,17.25
2022-09-28T01:42:30.494Z,15.35
2022-09-28T01:44:58.232Z,15.63
2022-09-28T01:47:26.229Z,15.43
2022-09-28T01:49:59.297Z,16.48
2022-09-28T01:52:30.108Z,15.40
2022-09-28T01:55:09.396Z,17.40
2022-09-28T01:57:45.463Z,16.42
2022-09-28T02:00:13.873Z,15.77
2022-09-28T02:02:53.915Z,13.55
2022-09-28T02:05:27.036Z,15.77
2022-09-28T02:07:54.461Z,12.82
2022-09-28T02:10:24.658Z,14.55
2022-09-28T02:12:54.138Z,13.93
2022-09-28T02:15:22.912Z,14.68
2022-09-28T02:17:49.540Z,13.15
2022-09-28T02:20:17.467Z,15.02
2022-09-28T02:22:46.994Z,15.05
2022-09-28T02:25:16.311Z,16.67
2022-09-28T02:27:45.318Z,17.67
2022-09-28T02:30:12.501Z,17.42
2022-09-28T02:32:42.480Z,17.23
2022-09-28T02:35:12.167Z,17.65
2022-09-28T02:37:39.263Z,17.45
2022-09-28T02:40:12.726Z,18.38
2022-09-28T02:42:53.853Z,16.48
2022-09-28T02:45:29.686Z,19.75
2022-09-28T02:48:15.734Z,20.77
2022-09-28T02:50:50.741Z,17.42
2022-09-28T02:53:30.597Z,17.17
2022-09-28T02:56:15.356Z,16.05
2022-09-28T02:58:50.769Z,19.45
2022-09-28T03:01:26.674Z,18.83
2022-09-28T03:03:55.602Z,13.95
2022-09-28T03:06:30.461Z,14.18
2022-09-28T03:09:03.109Z,14.25
2022-09-28T03:11:42.118Z,16.10
2022-09-28T03:14:09.364Z,14.43
2022-09-28T03:16:44.829Z,12.00
2022-09-28T03:19:12.355Z,19.10
2022-09-28T03:21:38.853Z,14.20
2022-09-28T03:24:06.068Z,13.63
2022-09-28T03:26:32.904Z,12.68
2022-09-28T03:28:59.305Z,15.70
2022-09-28T03:31:26.955Z,13.13
2022-09-28T03:33:53.433Z,14.57
2022-09-28T03:36:19.857Z,13.27
2022-09-28T03:38:46.266Z,13.95
2022-09-28T03:41:12.941Z,10.30
2022-09-28T03:43:42.097Z,15.07
2022-09-28T03:46:09.000Z,11.63
2022-09-28T03:48:41.163Z,10.55
2022-09-28T03:51:09.832Z,11.63
2022-09-28T03:53:38.611Z,14.75
2022-09-28T03:56:07.625Z,13.68
2022-09-28T03:58:34.505Z,10.20
2022-09-28T04:01:02.432Z,12.50
2022-09-28T04:03:29.010Z,12.25
2022-09-28T04:05:55.482Z,11.50
2022-09-28T04:08:22.944Z,13.52
2022-09-28T04:10:49.360Z,16.42
2022-09-28T04:13:16.081Z,10.43
2022-09-28T04:15:43.037Z,12.55
2022-09-28T04:18:13.533Z,11.15
2022-09-28T04:21:06.866Z,12.77
2022-09-28T04:23:38.708Z,16.08
2022-09-28T04:26:06.290Z,10.82
2022-09-28T04:28:51.581Z,10.65
2022-09-28T04:31:19.921Z,10.32
2022-09-28T04:33:47.460Z,12.68
2022-09-28T04:36:14.134Z,11.18
2022-09-28T04:38:52.752Z,13.52
2022-09-28T04:41:22.420Z,9.02
2022-09-28T04:43:49.988Z,8.80
2022-09-28T04:46:16.780Z,9.05
2022-09-28T04:48:53.789Z,8.80
2022-09-28T04:51:43.670Z,11.55
2022-09-28T04:54:11.288Z,10.60
2022-09-28T04:56:37.653Z,12.48
2022-09-28T04:59:04.137Z,9.88
2022-09-28T05:01:31.194Z,10.73
2022-09-28T05:04:00.443Z,10.43
2022-09-28T05:06:36.226Z,13.25
2022-09-28T05:09:05.806Z,10.43
2022-09-28T05:11:32.742Z,11.40
2022-09-28T05:13:59.918Z,8.80
2022-09-28T05:16:26.787Z,9.93
2022-09-28T05:19:28.669Z,9.50
2022-09-28T05:22:04.425Z,10.20
2022-09-28T05:24:36.119Z,10.27
2022-09-28T05:27:02.699Z,8.75
2022-09-28T05:29:32.160Z,11.93
2022-09-28T05:32:17.837Z,12.45
2022-09-28T05:34:49.709Z,11.88
2022-09-28T05:37:23.329Z,7.78
2022-09-28T05:39:49.870Z,8.52
2022-09-28T05:42:16.269Z,8.00
2022-09-28T05:44:43.102Z,7.30
2022-09-28T05:47:09.538Z,10.00
2022-09-28T05:49:35.960Z,9.68
2022-09-28T05:52:02.337Z,9.10
2022-09-28T05:54:28.852Z,9.40
2022-09-28T05:56:55.302Z,8.35
2022-09-28T05:59:21.720Z,8.73
2022-09-28T06:01:48.258Z,10.50
2022-09-28T06:04:16.120Z,8.23
2022-09-28T06:06:43.860Z,6.82
2022-09-28T06:09:12.379Z,9.45
2022-09-28T06:11:49.879Z,8.05
2022-09-28T06:14:36.575Z,6.18
2022-09-28T06:17:03.003Z,8.77
2022-09-28T06:19:29.522Z,7.50
2022-09-28T06:22:07.014Z,7.00
2022-09-28T06:24:42.357Z,8.45
2022-09-28T06:27:08.808Z,6.40
2022-09-28T06:29:35.145Z,6.45
2022-09-28T06:32:01.701Z,5.78
2022-09-28T06:34:29.885Z,4.93
2022-09-28T06:36:56.645Z,5.20
2022-09-28T06:39:23.186Z,4.38
2022-09-28T06:41:50.185Z,6.97
2022-09-28T06:44:19.728Z,5.80
2022-09-28T06:46:46.018Z,8.07
2022-09-28T06:49:30.240Z,4.38
2022-09-28T06:52:15.152Z,6.22
2022-09-28T06:55:01.076Z,8.32
2022-09-28T06:57:39.065Z,3.55
2022-09-28T07:00:05.605Z,4.32
2022-09-28T07:02:32.049Z,2.83
2022-09-28T07:05:26.553Z,7.18
2022-09-28T07:08:17.365Z,4.65
2022-09-28T07:11:01.313Z,2.78
2022-09-28T07:13:50.295Z,2.60
2022-09-28T07:16:24.165Z,2.95
2022-09-28T07:18:52.951Z,2.75
2022-09-28T07:21:28.693Z,4.82
2022-09-28T07:23:59.859Z,4.93
2022-09-28T07:26:45.391Z,4.05
2022-09-28T07:29:20.064Z,2.72
2022-09-28T07:32:06.705Z,4.80
2022-09-28T07:34:58.859Z,2.63
2022-09-28T07:37:44.141Z,2.80
2022-09-28T07:40:29.906Z,1.45
2022-09-28T07:43:03.167Z,4.38
2022-09-28T07:47:56.522Z,2.67
2022-09-28T07:50:41.998Z,2.55
2022-09-28T07:53:31.975Z,5.68
2022-09-28T07:56:20.077Z,2.50
2022-09-28T07:59:06.724Z,1.83
2022-09-28T08:01:56.011Z,6.43
2022-09-28T08:04:23.774Z,2.88
2022-09-28T08:06:50.583Z,4.10
2022-09-28T08:09:18.095Z,1.63
2022-09-28T08:12:04.111Z,2.03
2022-09-28T08:14:40.361Z,3.00
2022-09-28T08:17:25.036Z,2.50
2022-09-28T08:20:14.331Z,2.10
2022-09-28T08:22:41.829Z,4.88
2022-09-28T08:25:08.640Z,4.13
2022-09-28T08:27:34.948Z,3.33
2022-09-28T08:30:01.510Z,1.77
2022-09-28T08:32:46.180Z,4.90
2022-09-28T08:35:31.428Z,3.28
2022-09-28T08:38:30.797Z,4.60
2022-09-28T08:41:21.651Z,4.28
2022-09-28T08:44:07.680Z,2.50
2022-09-28T08:46:56.712Z,2.70
2022-09-28T08:49:39.808Z,3.38
2022-09-28T08:52:23.314Z,3.63
2022-09-28T08:55:02.322Z,2.67
2022-09-28T08:57:41.847Z,2.03
2022-09-28T09:00:14.592Z,3.30
2022-09-28T09:02:42.673Z,2.95
2022-09-28T09:05:16.105Z,1.17
2022-09-28T09:08:09.565Z,1.75
2022-09-28T09:10:36.229Z,2.60
2022-09-28T09:13:20.061Z,4.50
2022-09-28T09:16:06.956Z,1.88
2022-09-28T09:19:00.076Z,4.20
2022-09-28T09:22:01.073Z,4.47
2022-09-28T09:24:31.074Z,1.60
2022-09-28T09:27:02.022Z,1.70
2022-09-28T09:29:31.860Z,4.07
2022-09-28T09:32:17.220Z,2.67
2022-09-28T09:34:53.010Z,3.88
2022-09-28T09:37:48.046Z,2.70
2022-09-28T09:40:36.001Z,0.73
2022-09-28T09:43:10.888Z,2.75
2022-09-28T09:45:43.114Z,3.55
2022-09-28T09:48:23.747Z,2.30
2022-09-28T09:50:55.393Z,2.22
2022-09-28T09:53:41.979Z,4.68
2022-09-28T09:56:15.085Z,2.78
2022-09-28T09:59:13.182Z,0.90
2022-09-28T10:01:58.607Z,2.53
2022-09-28T10:04:41.692Z,1.25
2022-09-28T10:07:23.587Z,1.27
2022-09-28T10:09:52.521Z,2.50
2022-09-28T10:12:33.033Z,3.05
2022-09-28T10:15:01.882Z,5.88
2022-09-28T10:17:28.305Z,1.38
2022-09-28T10:20:25.469Z,2.83
2022-09-28T10:23:23.018Z,3.88
2022-09-28T10:25:51.321Z,0.55
2022-09-28T10:28:21.287Z,1.77
2022-09-28T10:30:47.654Z,5.22
2022-09-28T10:33:33.260Z,0.70
2022-09-28T10:36:00.780Z,3.80
2022-09-28T10:38:28.321Z,1.13
2022-09-28T10:41:10.823Z,4.22
2022-09-28T10:44:06.173Z,3.60
2022-09-28T10:47:05.571Z,0.93
2022-09-28T10:49:43.105Z,2.85
2022-09-28T10:52:29.789Z,0.93
2022-09-28T10:54:56.297Z,1.10
2022-09-28T10:57:27.844Z,2.63
2022-09-28T10:59:58.453Z,4.97
2022-09-28T11:02:36.482Z,2.28
2022-09-28T11:05:20.697Z,3.80
2022-09-28T11:07:47.965Z,2.38
2022-09-28T11:10:23.638Z,10.00
2022-09-28T11:12:51.333Z,1.38
2022-09-28T11:15:24.487Z,1.85
2022-09-28T11:17:52.654Z,1.90
2022-09-28T11:20:27.332Z,0.90
2022-09-28T11:22:57.744Z,4.95
2022-09-28T11:25:28.472Z,0.85
2022-09-28T11:27:55.416Z,1.15
2022-09-28T11:30:22.983Z,2.40
2022-09-28T11:33:12.892Z,0.73
2022-09-28T11:36:14.454Z,0.85
2022-09-28T11:38:50.746Z,1.90
2022-09-28T11:41:55.370Z,2.20
2022-09-28T11:44:31.102Z,1.45
2022-09-28T11:47:31.488Z,3.13
2022-09-28T11:50:23.000Z,1.48
2022-09-28T11:52:55.721Z,3.28
2022-09-28T11:55:31.411Z,2.20
2022-09-28T11:58:21.325Z,1.55
2022-09-28T12:00:51.845Z,1.55
2022-09-28T12:03:25.056Z,1.25
2022-09-28T12:06:20.884Z,1.75
2022-09-28T12:08:51.887Z,2.35
2022-09-28T12:11:56.313Z,1.60
2022-09-28T12:14:39.484Z,4.65
2022-09-28T12:17:19.861Z,1.70
2022-09-28T12:19:50.740Z,2.03
2022-09-28T12:22:20.953Z,1.15
2022-09-28T12:24:49.062Z,2.88
2022-09-28T12:27:19.572Z,1.95
2022-09-28T12:30:06.186Z,0.63
2022-09-28T12:32:37.380Z,1.15
2022-09-28T12:35:11.920Z,0.93
2022-09-28T12:37:54.514Z,2.95
2022-09-28T12:40:37.240Z,2.97
2022-09-28T12:46:10.456Z,2.83
2022-09-28T12:48:41.038Z,0.47
2022-09-28T12:51:22.693Z,1.23
2022-09-28T12:53:58.061Z,2.60
2022-09-28T12:56:43.197Z,1.75
2022-09-28T12:59:25.199Z,0.82
2022-09-28T13:02:17.936Z,1.17
2022-09-28T13:07:20.112Z,1.17
2022-09-28T13:10:01.980Z,6.75
2022-09-28T13:12:33.360Z,4.13
2022-09-28T13:15:13.559Z,1.00
2022-09-28T13:17:48.550Z,2.83
2022-09-28T13:20:15.899Z,1.08
2022-09-28T13:22:55.972Z,1.30
2022-09-28T13:25:25.248Z,2.30
2022-09-28T13:27:54.951Z,3.30
2022-09-28T13:30:21.417Z,2.75
2022-09-28T13:32:49.776Z,0.30
2022-09-28T13:35:19.460Z,1.50
2022-09-28T13:37:45.954Z,0.90
2022-09-28T13:40:12.364Z,1.20
2022-09-28T13:42:44.938Z,2.50
2022-09-28T13:47:49.729Z,1.63
2022-09-28T13:50:34.852Z,3.50
2022-09-28T13:53:07.696Z,4.53
2022-09-28T13:55:41.076Z,3.90
2022-09-28T13:58:20.506Z,1.55
2022-09-28T14:00:51.446Z,2.75
2022-09-28T14:03:23.997Z,2.35
2022-09-28T14:08:38.313Z,1.52
2022-09-28T14:11:24.615Z,2.08
2022-09-28T14:14:07.213Z,1.25
2022-09-28T14:16:37.135Z,2.35
2022-09-28T14:19:16.803Z,1.75
2022-09-28T14:21:43.151Z,0.57
2022-09-28T14:24:19.802Z,0.52
2022-09-28T14:27:04.949Z,0.77
2022-09-28T14:29:36.157Z,0.38
2022-09-28T14:32:21.812Z,0.50
2022-09-28T14:35:18.761Z,2.53
2022-09-28T14:38:06.544Z,0.90
2022-09-28T14:41:11.100Z,2.25
2022-09-28T14:43:57.735Z,1.50
2022-09-28T14:46:28.534Z,2.00
2022-09-28T14:48:56.185Z,0.60
2022-09-28T14:51:26.245Z,1.08
2022-09-28T14:53:52.685Z,5.63
2022-09-28T14:56:19.688Z,6.05
2022-09-28T14:58:47.831Z,4.90
2022-09-28T15:01:20.028Z,1.35
2022-09-28T15:03:48.311Z,1.63
2022-09-28T15:06:16.089Z,1.73
2022-09-28T15:08:42.669Z,3.28
2022-09-28T15:11:16.685Z,1.58
2022-09-28T15:13:43.371Z,2.03
2022-09-28T15:16:12.267Z,2.88
2022-09-28T15:18:43.824Z,2.15
2022-09-28T15:21:11.025Z,1.67
2022-09-28T15:23:39.223Z,2.53
2022-09-28T15:26:09.648Z,2.58
2022-09-28T15:28:36.506Z,2.70
2022-09-28T15:31:04.680Z,1.85
2022-09-28T15:33:50.940Z,2.55
2022-09-28T15:36:21.125Z,2.45
2022-09-28T15:38:51.298Z,2.97
2022-09-28T15:41:17.710Z,2.13
2022-09-28T15:43:46.749Z,3.45
2022-09-28T15:46:18.322Z,2.40
2022-09-28T15:48:55.085Z,3.05
2022-09-28T15:51:22.842Z,2.53
2022-09-28T15:54:04.142Z,2.00
2022-09-28T15:56:30.941Z,1.95
2022-09-28T15:59:11.496Z,3.53
2022-09-28T16:01:39.570Z,2.10
2022-09-28T16:04:47.814Z,2.25
2022-09-28T16:07:24.953Z,2.80
2022-09-28T16:09:57.103Z,1.38
2022-09-28T16:12:24.466Z,2.60
2022-09-28T16:14:51.748Z,3.63
2022-09-28T16:17:20.155Z,3.15
2022-09-28T16:19:48.541Z,1.40
2022-09-28T16:22:24.384Z,2.80
2022-09-28T16:24:54.697Z,7.40
2022-09-28T16:27:29.127Z,4.72
2022-09-28T16:30:05.107Z,11.40
2022-09-28T16:32:38.166Z,4.70
2022-09-28T16:35:07.573Z,13.30
2022-09-28T16:37:34.033Z,10.48
2022-09-28T16:40:00.439Z,5.75
2022-09-28T16:42:27.333Z,4.20
2022-09-28T16:44:56.281Z,9.70
2022-09-28T16:47:23.736Z,8.93
2022-09-28T16:49:51.484Z,8.73
2022-09-28T16:52:37.796Z,6.65
2022-09-28T16:55:38.882Z,6.90
2022-09-28T16:58:04.605Z,7.88
2022-09-28T17:00:31.727Z,6.18
2022-09-28T17:02:58.467Z,6.47
2022-09-28T17:05:25.435Z,2.95
2022-09-28T17:08:01.754Z,2.85
2022-09-28T17:11:09.369Z,3.75
2022-09-28T17:13:35.957Z,3.60
2022-09-28T17:16:13.651Z,2.90
2022-09-28T17:18:40.389Z,5.60
2022-09-28T17:21:09.529Z,3.22
2022-09-28T17:23:35.836Z,4.20
2022-09-28T17:26:02.702Z,2.70
2022-09-28T17:28:32.932Z,2.95
2022-09-28T17:30:59.723Z,1.90
2022-09-28T17:33:26.090Z,2.35
2022-09-28T17:35:53.530Z,2.88
2022-09-28T17:38:20.021Z,2.13
2022-09-28T17:40:48.023Z,2.78
2022-09-28T17:43:14.573Z,3.88
2022-09-28T17:45:41.075Z,2.50
2022-09-28T17:48:12.198Z,5.55
2022-09-28T17:50:41.211Z,14.48
2022-09-28T17:53:10.048Z,24.67
2022-09-28T17:55:37.101Z,15.25
2022-09-28T17:58:20.029Z,11.30
2022-09-28T18:03:16.004Z,8.07
2022-09-28T18:05:45.397Z,8.93
2022-09-28T18:08:17.442Z,8.00
2022-09-28T18:10:43.858Z,11.77
2022-09-28T18:13:10.274Z,12.90
2022-09-28T18:15:36.772Z,12.40
2022-09-28T18:18:04.233Z,9.63
2022-09-28T18:20:30.555Z,4.72
2022-09-28T18:22:57.153Z,4.75
2022-09-28T18:25:23.509Z,3.75
2022-09-28T18:27:49.908Z,3.15
2022-09-28T18:30:16.268Z,4.57
2022-09-28T18:32:42.732Z,2.22
2022-09-28T18:35:10.099Z,2.15
2022-09-28T18:37:37.399Z,2.72
2022-09-28T18:40:03.964Z,3.28
2022-09-28T18:42:30.260Z,5.50
2022-09-28T18:44:56.679Z,3.05
2022-09-28T18:47:23.512Z,2.90
2022-09-28T18:49:50.888Z,2.58
2022-09-28T18:52:17.298Z,2.25
2022-09-28T18:54:43.923Z,5.35
2022-09-28T18:57:10.358Z,6.28
2022-09-28T18:59:36.787Z,4.88
2022-09-28T19:02:03.528Z,6.13
2022-09-28T19:04:30.142Z,5.07
2022-09-28T19:06:56.585Z,3.20
2022-09-28T19:09:23.388Z,10.35
2022-09-28T19:11:49.825Z,23.77
2022-09-28T19:14:16.252Z,18.90
2022-09-28T19:16:43.880Z,19.02
2022-09-28T19:19:12.521Z,12.60
2022-09-28T19:21:39.807Z,10.93
2022-09-28T19:24:06.437Z,9.52
2022-09-28T19:26:33.254Z,5.10
2022-09-28T19:28:59.609Z,4.75
2022-09-28T19:31:26.489Z,3.72
2022-09-28T19:33:52.899Z,2.55
2022-09-28T19:36:21.774Z,3.65
2022-09-28T19:38:48.258Z,5.40
2022-09-28T19:41:39.621Z,4.80
2022-09-28T19:44:10.654Z,6.85
2022-09-28T19:46:37.960Z,7.65
2022-09-28T19:49:06.029Z,13.20
2022-09-28T19:51:32.877Z,16.75
2022-09-28T19:54:01.258Z,13.32
2022-09-28T19:56:31.765Z,13.80
2022-09-28T19:58:59.326Z,12.98
2022-09-28T20:01:25.989Z,10.82
2022-09-28T20:03:53.905Z,13.18
2022-09-28T20:06:20.555Z,18.30
2022-09-28T20:08:46.889Z,15.88
2022-09-28T20:11:13.196Z,8.48
2022-09-28T20:13:39.546Z,5.18
2022-09-28T20:16:07.268Z,6.75
2022-09-28T20:18:43.667Z,5.60
2022-09-28T20:21:11.328Z,4.43
2022-09-28T20:23:37.653Z,7.25
2022-09-28T20:26:06.241Z,7.68
2022-09-28T20:28:32.903Z,6.28
2022-09-28T20:31:03.639Z,5.35
2022-09-28T20:33:31.491Z,7.75
2022-09-28T20:36:03.362Z,5.72
2022-09-28T20:38:29.992Z,4.47
2022-09-28T20:40:58.981Z,5.47
2022-09-28T20:43:25.417Z,5.43
2022-09-28T20:45:52.023Z,8.40
2022-09-28T20:48:19.557Z,7.78
2022-09-28T20:50:45.917Z,8.07
2022-09-28T20:53:12.233Z,8.32
2022-09-28T20:55:38.581Z,9.50
2022-09-28T20:58:04.933Z,8.38
2022-09-28T21:00:31.340Z,8.88
2022-09-28T21:02:57.891Z,9.85
2022-09-28T21:05:24.412Z,10.98
2022-09-28T21:07:50.858Z,10.13
2022-09-28T21:10:17.186Z,7.88
2022-09-28T21:12:46.852Z,6.10
2022-09-28T21:15:13.254Z,6.15
2022-09-28T21:17:39.867Z,8.15
2022-09-28T21:20:06.531Z,21.58
2022-09-28T21:22:32.926Z,13.45
2022-09-28T21:24:59.268Z,12.55
2022-09-28T21:27:25.712Z,9.45
2022-09-28T21:29:52.142Z,7.47
2022-09-28T21:32:18.466Z,7.88
2022-09-28T21:34:44.804Z,11.43
2022-09-28T21:37:11.162Z,7.95
2022-09-28T21:39:37.542Z,5.63
2022-09-28T21:42:03.930Z,4.65
2022-09-28T21:44:30.930Z,5.55
2022-09-28T21:46:57.249Z,4.45
2022-09-28T21:49:23.836Z,5.95
2022-09-28T21:51:50.259Z,7.70
2022-09-28T21:54:16.675Z,7.53
2022-09-28T21:56:43.183Z,9.80
2022-09-28T21:59:09.575Z,14.68
2022-09-28T22:01:35.993Z,17.13
2022-09-28T22:04:02.385Z,19.02
2022-09-28T22:06:28.784Z,14.38
2022-09-28T22:08:55.546Z,13.27
2022-09-28T22:11:23.294Z,8.88
2022-09-28T22:13:53.803Z,7.28
2022-09-28T22:16:21.148Z,8.00
2022-09-28T22:18:47.888Z,5.65
2022-09-28T22:21:14.286Z,7.45
2022-09-28T22:23:40.759Z,6.13
2022-09-28T22:26:09.692Z,5.32
2022-09-28T22:28:36.400Z,4.88
2022-09-28T22:31:03.122Z,5.30
2022-09-28T22:33:29.512Z,5.65
2022-09-28T22:35:55.950Z,6.03
2022-09-28T22:38:23.332Z,7.80
2022-09-28T22:40:54.597Z,5.60
2022-09-28T22:43:22.530Z,8.40
2022-09-28T22:45:49.072Z,5.97
2022-09-28T22:48:15.621Z,6.72
2022-09-28T22:50:51.705Z,6.05
2022-09-28T22:53:18.376Z,6.13
2022-09-28T22:55:44.706Z,7.28
2022-09-28T22:58:11.249Z,7.18
2022-09-28T23:00:37.807Z,6.07
2022-09-28T23:03:04.746Z,6.78
2022-09-28T23:05:31.152Z,6.78
2022-09-28T23:07:57.567Z,6.78
2022-09-28T23:10:24.306Z,8.15
2022-09-28T23:12:52.910Z,8.38
2022-09-28T23:15:19.295Z,6.10
2022-09-28T23:17:45.673Z,5.75
2022-09-28T23:20:12.011Z,5.38
2022-09-28T23:22:38.321Z,5.90
2022-09-28T23:25:04.828Z,5.45
2022-09-28T23:27:31.221Z,6.28
2022-09-28T23:29:57.523Z,5.63
2022-09-28T23:32:26.538Z,5.78
2022-09-28T23:34:54.899Z,5.20
2022-09-28T23:37:21.231Z,6.20
2022-09-28T23:39:47.543Z,5.65
2022-09-28T23:42:13.881Z,5.68
2022-09-28T23:44:40.224Z,6.22
2022-09-28T23:47:06.561Z,5.65
2022-09-28T23:49:32.873Z,6.25
2022-09-28T23:51:59.310Z,6.18
2022-09-28T23:54:25.652Z,6.97
2022-09-28T23:56:51.992Z,6.28
2022-09-28T23:59:18.393Z,8.40
